Accueil
METAR-TAF:

METAR-TAF

Aéroports :

Aéroport international Hercílio Luz

Florianópolis, Santa Catarina, Brésil

latitude: 27-40S, longitude: 048-33W, altitude: 5 m

Observation

Le bulletin a été fait il y a 33 minutes, à 13:00 UTC
Vent 6 kt de sud/sud-ouest, variant entre sud/sud-est et sud-ouest
Température 25°C
Humidité 74%
Pression 1013 hPa
Visibilité 10 km ou plus
Quelques nuages à une hauteur de 3500 ft
Nuages épars à une hauteur de 10000 ft

METAR: SBFL 161300Z 20006KT 160V230 9999 FEW035 SCT100 25/20 Q1013

Heure: 11:33 (13:33 UTC)

Prévision

Le bulletin a été fait il y a 5 heures et 18 minutes, à 08:15 UTC
Prévision valable du 16 à 12 UTC au 17 à 12 UTC
Vent 7 kt de est/sud-est
Visibilité 10 km ou plus
Nuages fragmentés à une hauteur de 2500 ft

TAF: SBFL 160815Z 1612/1712 12007KT 9999 BKN025 TX24/1615Z TN20/1708Z RMK PDW

Observations et prévisions météorologiques de plus de 4000 aéroports (messages METAR et TAF).

Les stations disponibles sont représentées par des disques jaunes et rouges sur la carte.

Passer la souris dessus pour voir le nom de la station.

Cliquer dessus pour voir les observations et prévisions météorologiques.

Pour changer de carte: cliquez sur les boutons verts avec une croix noire pour zoomer, sur le bouton vert avec un tiret pour effectuer un zoom arrière, ou sur les flèches vertes pour les cartes adjacentes.


METAR-TAF: